Time;durP1;ratioP1;P1;durP2;ratioP2;P2;SDS_P1;SDS_P2;PMS_P1;PMS_P2;Temp;Humidity;BMP_temperature;BMP_pressure;BME280_temperature;BME280_humidity;BME280_pressure;Samples;Min_cycle;Max_cycle;Signal;HPM_P1;HPM_P2
2022/04/20 00:01:30;;;;;;;5.15;3.08;;;;;;;11.67;46.51;101446.50;4980474;28;20033;-93
2022/04/20 00:03:55;;;;;;;4.57;3.17;;;;;;;11.55;46.71;101435.44;4974860;28;20022;-92
2022/04/20 00:06:21;;;;;;;4.70;3.10;;;;;;;11.54;46.31;101439.88;4979196;28;20505;-93
2022/04/20 00:08:46;;;;;;;3.60;3.25;;;;;;;11.55;46.92;101444.25;4981202;28;20034;-90
2022/04/20 00:11:11;;;;;;;5.25;3.58;;;;;;;11.45;47.48;101434.91;4980388;28;20420;-93
2022/04/20 00:13:37;;;;;;;6.25;3.20;;;;;;;11.35;47.07;101433.50;4998953;28;20058;-92
2022/04/20 00:16:02;;;;;;;3.72;2.67;;;;;;;11.36;47.18;101435.22;4979207;28;20023;-93
2022/04/20 00:18:28;;;;;;;3.88;3.10;;;;;;;11.31;47.27;101427.44;4979344;28;20104;-91
2022/04/20 00:20:53;;;;;;;4.10;3.47;;;;;;;11.33;47.15;101435.31;4983490;28;20529;-89
2022/04/20 00:23:18;;;;;;;5.35;2.92;;;;;;;11.25;47.61;101430.28;4998853;28;20469;-91
2022/04/20 00:25:44;;;;;;;3.83;3.25;;;;;;;11.21;47.91;101431.31;4993663;28;20658;-93
2022/04/20 00:28:09;;;;;;;5.15;3.45;;;;;;;11.21;47.84;101441.88;4979401;28;20022;-93
2022/04/20 00:30:34;;;;;;;5.78;2.90;;;;;;;11.18;47.84;101441.97;4980042;28;20042;-90
2022/04/20 00:33:00;;;;;;;5.22;3.53;;;;;;;11.16;48.00;101441.19;4997054;28;20034;-93
2022/04/20 00:35:26;;;;;;;5.63;3.17;;;;;;;11.18;47.35;101448.13;4999572;28;20476;-90
2022/04/20 00:37:51;;;;;;;3.65;3.28;;;;;;;11.17;49.05;101448.19;4999777;28;20026;-91
2022/04/20 00:40:17;;;;;;;5.53;3.33;;;;;;;11.12;47.59;101448.34;4997360;28;20034;-91
2022/04/20 00:42:42;;;;;;;6.32;3.80;;;;;;;11.08;48.57;101448.50;4995141;28;20080;-93
2022/04/20 00:45:09;;;;;;;4.40;3.22;;;;;;;10.98;49.31;101448.78;4995987;28;20116;-90
2022/04/20 00:47:41;;;;;;;4.75;3.50;;;;;;;10.95;48.19;101453.31;4983851;28;20030;-92
2022/04/20 00:50:07;;;;;;;6.00;3.22;;;;;;;10.93;48.58;101453.38;4978626;28;20503;-93
2022/04/20 00:52:32;;;;;;;3.83;3.20;;;;;;;10.90;48.29;101447.31;4999768;28;20412;-93
2022/04/20 00:54:58;;;;;;;4.43;3.70;;;;;;;10.88;50.45;101454.44;4984108;28;20030;-93
2022/04/20 00:57:24;;;;;;;4.93;3.33;;;;;;;10.81;48.47;101456.38;4997202;28;20444;-92
2022/04/20 00:59:52;;;;;;;5.97;3.60;;;;;;;10.74;48.53;101444.28;4994439;28;20126;-91
2022/04/20 01:02:17;;;;;;;6.45;3.40;;;;;;;10.80;47.94;101461.72;4997322;28;20528;-94
2022/04/20 01:04:44;;;;;;;4.15;3.72;;;;;;;10.73;48.40;101455.78;4982112;28;20034;-94
2022/04/20 01:07:13;;;;;;;6.30;3.58;;;;;;;10.65;48.20;101447.22;4982138;28;20092;-92
2022/04/20 01:09:41;;;;;;;5.03;3.80;;;;;;;10.59;51.46;101450.06;4996122;28;20493;-92
2022/04/20 01:12:07;;;;;;;6.15;3.67;;;;;;;10.57;48.92;101459.78;4999633;28;20041;-94
2022/04/20 01:14:33;;;;;;;4.47;3.17;;;;;;;10.51;49.02;101454.69;4982539;28;20076;-91
2022/04/20 01:16:58;;;;;;;3.97;3.53;;;;;;;10.46;48.77;101457.47;4980985;28;20034;-92
2022/04/20 01:19:34;;;;;;;5.05;3.72;;;;;;;10.37;48.89;101447.19;4996558;28;20571;-93
2022/04/20 01:22:03;;;;;;;5.40;3.35;;;;;;;10.34;48.55;101447.25;4980671;28;20215;-93
2022/04/20 01:24:29;;;;;;;4.80;3.55;;;;;;;10.36;49.22;101459.53;4981138;28;20358;-91
2022/04/20 01:26:55;;;;;;;4.57;3.53;;;;;;;10.34;52.29;101457.84;4980091;28;20030;-92
2022/04/20 01:29:21;;;;;;;4.45;3.42;;;;;;;10.27;49.84;101456.28;4999402;28;20037;-92
2022/04/20 01:31:47;;;;;;;5.47;3.95;;;;;;;10.19;49.81;101453.81;4980557;28;20030;-89
2022/04/20 01:34:12;;;;;;;7.68;4.03;;;;;;;10.13;50.37;101459.28;4999160;28;20045;-93
2022/04/20 01:36:37;;;;;;;8.88;4.20;;;;;;;10.00;50.06;101449.97;4996850;28;20029;-92
2022/04/20 01:39:03;;;;;;;5.30;3.92;;;;;;;9.99;50.07;101456.19;4975730;28;20026;-94
2022/04/20 01:41:28;;;;;;;6.00;4.18;;;;;;;9.92;50.52;101445.75;4984334;28;20121;-91
2022/04/20 01:43:53;;;;;;;5.68;4.00;;;;;;;9.94;53.16;101453.66;4979345;28;20153;-92
2022/04/20 01:46:19;;;;;;;5.05;3.63;;;;;;;9.91;50.29;101448.47;4979651;28;20042;-91
2022/04/20 01:48:44;;;;;;;5.68;4.38;;;;;;;9.91;51.83;101459.03;4979490;28;20034;-93
2022/04/20 01:53:53;;;;;;;5.68;4.38;;;;;;;9.83;50.86;101458.34;4995196;28;20044;-89
2022/04/20 01:56:19;;;;;;;5.57;4.10;;;;;;;9.84;51.23;101452.16;4980515;28;20625;-93
2022/04/20 01:58:44;;;;;;;4.22;3.83;;;;;;;9.80;50.53;101454.03;4995313;28;20484;-90
2022/04/20 02:03:58;;;;;;;5.65;3.95;;;;;;;9.77;51.10;101455.88;4966410;28;20045;-90
2022/04/20 02:06:23;;;;;;;4.90;4.00;;;;;;;9.72;50.45;101458.66;4997529;28;20481;-94
2022/04/20 02:08:49;;;;;;;7.00;3.97;;;;;;;9.69;51.03;101454.31;4980104;28;20095;-91
2022/04/20 02:11:14;;;;;;;4.93;4.15;;;;;;;9.71;52.16;101467.50;4977745;28;20038;-93
2022/04/20 02:13:39;;;;;;;6.30;3.78;;;;;;;9.62;51.07;101451.88;4977886;28;20087;-93
2022/04/20 02:16:05;;;;;;;7.45;4.25;;;;;;;9.59;53.07;101458.09;4978790;28;20323;-93
2022/04/20 02:18:31;;;;;;;5.60;4.20;;;;;;;9.53;50.75;101458.28;4994198;28;20030;-93
2022/04/20 02:20:56;;;;;;;6.00;4.50;;;;;;;9.51;51.25;101461.84;4997324;28;20076;-92
2022/04/20 02:23:21;;;;;;;7.50;4.22;;;;;;;9.40;51.87;101446.28;4979469;28;20025;-93
2022/04/20 02:25:47;;;;;;;5.30;4.20;;;;;;;9.30;53.06;101443.03;4995664;28;20485;-91
2022/04/20 02:28:12;;;;;;;6.30;4.40;;;;;;;9.30;51.60;101455.34;4978499;28;20060;-91
2022/04/20 02:30:37;;;;;;;5.72;4.25;;;;;;;9.19;56.33;101456.50;4995449;28;20037;-92
2022/04/20 02:33:02;;;;;;;7.78;4.43;;;;;;;9.10;54.83;101447.94;4979289;28;20034;-90
2022/04/20 02:35:30;;;;;;;8.98;4.68;;;;;;;9.12;52.38;101459.31;4996157;28;20425;-92
2022/04/20 02:37:55;;;;;;;7.10;4.57;;;;;;;9.01;52.25;101434.97;4993764;28;20034;-92
2022/04/20 02:40:21;;;;;;;5.25;3.92;;;;;;;9.08;51.45;101447.09;4981281;28;20026;-93
2022/04/20 02:42:47;;;;;;;5.53;4.25;;;;;;;9.12;55.09;101452.25;4980869;28;20444;-90
2022/04/20 02:45:12;;;;;;;5.03;4.20;;;;;;;9.13;52.29;101455.75;4977175;28;20429;-92
2022/04/20 02:47:38;;;;;;;6.18;4.00;;;;;;;9.15;52.05;101465.38;4999120;28;20038;-93
2022/04/20 02:50:03;;;;;;;7.32;4.38;;;;;;;9.10;52.24;101451.44;4977353;28;20017;-92
2022/04/20 02:52:29;;;;;;;5.30;4.13;;;;;;;9.12;52.27;101456.66;4998088;28;20180;-91
2022/04/20 02:54:54;;;;;;;5.72;4.10;;;;;;;9.11;51.65;101458.44;4994249;28;20038;-90
2022/04/20 02:57:19;;;;;;;5.13;4.05;;;;;;;9.13;51.78;101459.25;4994817;28;20030;-90
2022/04/20 02:59:44;;;;;;;6.90;3.72;;;;;;;9.12;52.15;101467.22;4999360;28;20084;-94
2022/04/20 03:02:10;;;;;;;5.72;3.80;;;;;;;9.10;52.52;101467.25;4985821;28;20040;-90
2022/04/20 03:04:35;;;;;;;4.90;3.72;;;;;;;9.04;52.04;101466.53;4980487;28;20535;-93
2022/04/20 03:07:00;;;;;;;5.43;3.67;;;;;;;9.09;51.34;101469.91;4995989;28;20037;-93
2022/04/20 03:09:26;;;;;;;5.32;4.05;;;;;;;9.06;53.44;101464.75;4994087;28;20076;-92
2022/04/20 03:11:51;;;;;;;4.85;3.65;;;;;;;9.07;51.71;101464.69;4981000;28;20137;-93
2022/04/20 03:14:18;;;;;;;5.03;4.03;;;;;;;9.06;52.21;101473.50;4977754;28;20366;-93
2022/04/20 03:16:44;;;;;;;5.40;4.35;;;;;;;9.06;52.42;101475.28;4979812;28;20034;-90
2022/04/20 03:19:09;;;;;;;8.23;4.00;;;;;;;9.05;53.98;101477.06;4974510;28;20077;-94
2022/04/20 03:21:34;;;;;;;6.22;4.10;;;;;;;9.00;52.33;101480.69;4979560;28;20558;-93
2022/04/20 03:24:00;;;;;;;5.43;3.83;;;;;;;8.93;52.62;101474.69;4998875;28;20099;-92
2022/04/20 03:26:25;;;;;;;7.80;5.15;;;;;;;8.86;52.25;101475.72;4976017;28;20050;-92
2022/04/20 03:28:50;;;;;;;8.00;4.68;;;;;;;8.86;52.55;101487.16;4998529;28;20083;-90
2022/04/20 03:31:17;;;;;;;6.68;4.53;;;;;;;8.84;52.62;101496.00;4994126;28;20052;-93
2022/04/20 03:33:42;;;;;;;6.53;4.13;;;;;;;8.80;52.73;101489.06;4977879;28;20026;-93
2022/04/20 03:36:08;;;;;;;5.63;3.88;;;;;;;8.74;52.31;101476.03;4995855;28;20033;-93
2022/04/20 03:38:33;;;;;;;6.35;4.13;;;;;;;8.69;52.86;101486.66;4977265;28;20411;-93
2022/04/20 03:40:59;;;;;;;5.20;4.30;;;;;;;8.63;53.08;101479.78;4977306;28;20030;-93
2022/04/20 03:43:25;;;;;;;5.53;4.20;;;;;;;8.66;52.23;101484.09;4979345;28;20033;-90
2022/04/20 03:45:50;;;;;;;5.43;4.30;;;;;;;8.64;53.35;101489.41;4980453;28;20117;-94
2022/04/20 03:48:17;;;;;;;7.07;4.50;;;;;;;8.60;53.48;101489.50;4996155;28;20084;-90
2022/04/20 03:50:42;;;;;;;6.93;4.75;;;;;;;8.61;52.64;101489.47;4978374;28;20452;-92
2022/04/20 03:53:07;;;;;;;5.65;4.85;;;;;;;8.53;52.77;101483.47;4977295;28;20026;-94
2022/04/20 03:55:33;;;;;;;5.20;4.15;;;;;;;8.52;53.14;101492.28;4974196;28;20100;-92
2022/04/20 03:57:58;;;;;;;7.13;4.65;;;;;;;8.49;53.47;101487.09;4977234;28;20030;-94
2022/04/20 04:00:25;;;;;;;5.43;4.07;;;;;;;8.51;53.17;101487.06;4978858;28;20034;-93
2022/04/20 04:02:51;;;;;;;7.68;4.97;;;;;;;8.48;53.10;101495.03;4991538;28;20030;-92
2022/04/20 04:05:16;;;;;;;5.68;4.65;;;;;;;8.48;53.69;101497.66;4978821;28;20041;-90
2022/04/20 04:07:41;;;;;;;8.30;4.55;;;;;;;8.39;54.44;101489.06;4977909;28;20026;-92
2022/04/20 04:10:07;;;;;;;8.05;4.38;;;;;;;8.42;53.67;101493.38;4996928;28;20033;-90
2022/04/20 04:12:33;;;;;;;5.32;4.55;;;;;;;8.35;53.54;101484.72;4980063;28;20050;-91
2022/04/20 04:14:58;;;;;;;5.10;4.03;;;;;;;8.37;53.30;101500.53;4978420;28;20032;-92
2022/04/20 04:17:24;;;;;;;6.22;4.30;;;;;;;8.36;54.13;101511.94;4980396;28;20038;-91
2022/04/20 04:19:49;;;;;;;8.88;5.50;;;;;;;8.29;53.82;101498.00;4971560;28;20054;-92
2022/04/20 04:22:14;;;;;;;5.90;4.45;;;;;;;8.26;56.46;101486.69;4973027;28;20030;-92
2022/04/20 04:24:40;;;;;;;6.78;4.20;;;;;;;8.27;54.52;101496.31;4971438;28;20666;-93
2022/04/20 04:27:08;;;;;;;5.97;4.30;;;;;;;8.23;54.00;101505.19;4976588;28;20085;-92
2022/04/20 04:29:34;;;;;;;5.57;3.85;;;;;;;8.23;53.81;101507.81;4984906;28;20041;-93
2022/04/20 04:32:01;;;;;;;5.18;3.85;;;;;;;8.19;54.39;101512.25;4976369;28;20031;-90
2022/04/20 04:34:27;;;;;;;5.75;4.03;;;;;;;8.19;56.26;101515.75;4979947;28;20023;-93
2022/04/20 04:36:54;;;;;;;5.95;4.20;;;;;;;8.13;53.74;101507.97;4976274;28;20401;-91
2022/04/20 04:39:21;;;;;;;5.15;4.35;;;;;;;8.09;54.05;101502.81;4981051;28;20038;-92
2022/04/20 04:42:02;;;;;;;6.97;4.43;;;;;;;8.10;54.27;101520.34;4975526;28;20474;-92
2022/04/20 04:44:28;;;;;;;8.27;4.35;;;;;;;8.04;54.63;101520.47;4978326;28;20029;-94
2022/04/20 04:49:38;;;;;;;5.70;4.22;;;;;;;8.03;54.84;101526.63;4976874;28;20093;-93
2022/04/20 04:52:06;;;;;;;6.70;4.85;;;;;;;8.04;56.55;101534.50;4975726;28;20023;-93
2022/04/20 04:54:33;;;;;;;7.57;4.85;;;;;;;8.00;54.85;101539.84;4975863;28;20037;-93
2022/04/20 04:56:59;;;;;;;8.43;4.80;;;;;;;7.98;57.22;101542.50;4976851;28;20501;-93
2022/04/20 04:59:24;;;;;;;8.45;5.20;;;;;;;7.98;56.13;101546.91;4975483;28;20030;-91
2022/04/20 05:01:52;;;;;;;8.43;4.80;;;;;;;7.85;55.69;101526.06;4980098;28;20045;-94
2022/04/20 05:04:19;;;;;;;7.85;4.43;;;;;;;7.89;55.24;101542.69;4979317;28;20784;-93
2022/04/20 05:06:44;;;;;;;10.30;4.60;;;;;;;7.89;55.57;101543.53;4976455;28;20047;-90
2022/04/20 05:09:10;;;;;;;5.43;4.20;;;;;;;7.95;55.32;101549.59;4975900;28;20062;-93
2022/04/20 05:11:35;;;;;;;6.45;4.57;;;;;;;8.00;59.74;101556.50;4979285;28;20482;-92
2022/04/20 05:14:01;;;;;;;5.50;4.15;;;;;;;7.91;55.76;101530.34;4982572;28;20029;-90
2022/04/20 05:16:26;;;;;;;6.80;4.38;;;;;;;8.13;57.26;101554.53;4977703;28;20026;-91
2022/04/20 05:18:52;;;;;;;6.78;5.00;;;;;;;8.11;54.92;101546.66;4974515;28;20097;-92
2022/04/20 05:21:18;;;;;;;6.78;4.47;;;;;;;8.25;56.01;101562.19;4980042;28;20021;-92
2022/04/20 05:23:43;;;;;;;6.97;4.50;;;;;;;8.29;56.96;101557.72;4978188;28;20034;-92
2022/04/20 05:26:09;;;;;;;7.78;4.50;;;;;;;8.29;55.63;101547.19;4997207;28;20056;-93
2022/04/20 05:28:34;;;;;;;7.65;4.72;;;;;;;8.36;55.43;101562.00;4978234;28;21198;-90
2022/04/20 05:30:59;;;;;;;5.70;4.35;;;;;;;8.40;54.97;101550.53;4979106;28;20026;-94
2022/04/20 05:33:25;;;;;;;7.85;4.75;;;;;;;8.50;55.68;101560.00;4983734;28;20469;-93
2022/04/20 05:35:50;;;;;;;8.02;4.55;;;;;;;8.50;54.47;101552.09;4998452;28;20018;-89
2022/04/20 05:43:44;;;;;;;6.53;4.65;;;;;;;8.73;54.34;101553.38;4996404;28;20076;-93
2022/04/20 05:46:09;;;;;;;7.68;4.95;;;;;;;8.71;53.83;101542.84;4996767;28;20206;-95
2022/04/20 05:48:35;;;;;;;7.63;4.63;;;;;;;8.92;54.37;101567.91;4998758;28;20164;-94
2022/04/20 06:04:30;;;;;;;7.07;4.65;;;;;;;9.20;52.54;101553.19;4996495;28;20123;-93
2022/04/20 06:06:55;;;;;;;7.00;5.05;;;;;;;9.30;53.62;101556.47;4981484;28;20030;-92
2022/04/20 06:09:20;;;;;;;8.35;4.60;;;;;;;9.35;52.84;101556.38;4979884;28;20034;-91
2022/04/20 06:11:46;;;;;;;6.10;4.70;;;;;;;9.40;51.46;101554.50;4979435;28;20064;-92
2022/04/20 06:14:11;;;;;;;6.63;4.85;;;;;;;9.48;50.95;101562.25;5000567;28;20047;-93
2022/04/20 06:16:37;;;;;;;6.05;4.43;;;;;;;9.56;54.10;101566.44;4991690;28;20533;-94
2022/04/20 06:19:02;;;;;;;8.20;4.85;;;;;;;9.62;52.09;101558.34;4977933;28;20064;-91
2022/04/20 06:21:27;;;;;;;9.15;4.50;;;;;;;9.64;51.37;101555.66;4995018;28;20026;-94
2022/04/20 06:23:53;;;;;;;6.88;4.97;;;;;;;9.66;52.23;101554.72;4998362;28;20372;-93
2022/04/20 06:26:18;;;;;;;7.35;4.50;;;;;;;9.78;52.10;101564.09;4980230;28;20266;-93
2022/04/20 06:28:44;;;;;;;6.28;4.50;;;;;;;9.85;51.76;101563.06;4996278;28;20030;-91
2022/04/20 06:31:09;;;;;;;7.78;4.70;;;;;;;9.92;51.20;101556.69;4978838;28;20066;-94
2022/04/20 06:33:34;;;;;;;6.15;4.63;;;;;;;9.98;50.60;101563.63;4992953;28;20030;-92
2022/04/20 06:36:00;;;;;;;6.07;4.60;;;;;;;10.04;50.17;101566.09;4977641;28;20049;-93
2022/04/20 06:38:26;;;;;;;6.75;5.03;;;;;;;10.15;50.94;101563.16;4977897;28;20034;-93
2022/04/20 06:40:53;;;;;;;11.23;4.93;;;;;;;10.28;50.23;101572.53;4996830;28;20981;-93
2022/04/20 06:43:18;;;;;;;11.57;4.65;;;;;;;10.41;50.35;101565.13;4976355;28;20716;-91
2022/04/20 06:45:44;;;;;;;6.72;4.25;;;;;;;10.52;50.70;101568.31;4987157;28;20068;-92
2022/04/20 06:48:10;;;;;;;11.80;4.95;;;;;;;10.60;50.46;101555.75;4996073;28;20393;-91
2022/04/20 06:50:36;;;;;;;6.05;4.53;;;;;;;10.76;48.68;101565.88;4997521;28;20032;-89
2022/04/20 06:58:35;;;;;;;6.05;4.60;;;;;;;11.24;49.25;101579.44;4998546;28;20496;-91
2022/04/20 07:01:01;;;;;;;8.23;4.40;;;;;;;11.33;48.63;101575.59;4975551;28;20032;-90
2022/04/20 07:03:27;;;;;;;8.23;4.70;;;;;;;11.42;49.08;101583.25;4976623;28;20046;-90
2022/04/20 07:05:52;;;;;;;6.10;4.18;;;;;;;11.52;49.38;101575.88;4979999;28;20444;-91
2022/04/20 07:08:19;;;;;;;6.47;4.40;;;;;;;11.57;48.71;101566.03;4993939;28;20451;-91
2022/04/20 07:10:44;;;;;;;5.25;4.20;;;;;;;11.72;49.48;101566.38;4993509;28;20037;-91
2022/04/20 07:13:09;;;;;;;4.68;3.95;;;;;;;11.82;47.66;101571.38;4976293;28;20389;-91
2022/04/20 07:15:35;;;;;;;6.43;4.50;;;;;;;11.94;49.14;101571.00;4978408;28;20037;-92
2022/04/20 07:18:00;;;;;;;5.78;4.70;;;;;;;12.05;47.31;101581.22;4990334;28;20025;-90
2022/04/20 07:20:29;;;;;;;6.80;4.35;;;;;;;12.13;48.23;101568.59;4990719;28;20050;-92
2022/04/20 07:22:54;;;;;;;5.90;4.65;;;;;;;12.29;47.17;101577.72;4986847;28;20436;-93
2022/04/20 07:25:25;;;;;;;5.63;4.32;;;;;;;12.46;47.33;101574.47;4996313;28;20112;-92
2022/04/20 07:27:50;;;;;;;7.10;4.20;;;;;;;12.55;45.37;101574.13;4977985;28;20034;-92
2022/04/20 07:30:16;;;;;;;8.32;4.38;;;;;;;12.62;47.81;101577.41;4978315;28;20075;-92
2022/04/20 07:32:41;;;;;;;7.03;4.45;;;;;;;12.76;45.56;101580.44;4994686;28;20034;-93
2022/04/20 07:35:07;;;;;;;9.95;4.25;;;;;;;12.96;46.29;101585.88;4996693;28;20030;-91
2022/04/20 07:37:33;;;;;;;7.47;4.43;;;;;;;13.09;45.49;101578.28;4971313;28;20386;-92
2022/04/20 07:39:58;;;;;;;6.00;3.78;;;;;;;13.28;45.01;101574.00;4986208;28;20480;-89
2022/04/20 07:42:24;;;;;;;6.32;4.18;;;;;;;13.51;43.71;101574.88;4992608;28;20050;-93
2022/04/20 07:44:49;;;;;;;7.82;4.30;;;;;;;13.92;43.68;101578.47;4995246;28;20283;-92
2022/04/20 07:47:15;;;;;;;8.77;4.43;;;;;;;14.33;43.04;101583.81;4994643;28;20433;-92
2022/04/20 07:52:24;;;;;;;5.22;4.22;;;;;;;15.23;40.90;101577.03;4994088;28;20080;-90
2022/04/20 07:54:50;;;;;;;5.22;3.70;;;;;;;15.61;38.84;101581.44;4974323;28;20046;-92
2022/04/20 07:57:15;;;;;;;7.43;3.88;;;;;;;16.00;39.71;101584.81;4974687;28;20557;-92
2022/04/20 07:59:44;;;;;;;4.95;3.78;;;;;;;16.22;37.66;101583.69;4995650;28;20045;-92
2022/04/20 08:02:09;;;;;;;4.72;3.60;;;;;;;16.47;37.71;101580.63;4997625;28;20037;-90
2022/04/20 08:04:34;;;;;;;6.95;4.00;;;;;;;16.76;37.67;101587.09;4982912;28;20033;-94
2022/04/20 08:07:00;;;;;;;8.45;4.07;;;;;;;17.07;35.83;101583.63;4985350;28;20439;-92
2022/04/20 08:09:25;;;;;;;6.18;3.67;;;;;;;17.47;35.98;101584.88;4996013;28;20038;-94
2022/04/20 08:11:51;;;;;;;5.95;3.70;;;;;;;17.70;34.46;101588.91;4979671;28;20026;-90
2022/04/20 08:14:16;;;;;;;5.90;3.95;;;;;;;17.85;34.25;101580.03;4980911;28;20026;-90
2022/04/20 08:16:44;;;;;;;4.18;3.70;;;;;;;18.18;33.90;101588.81;4996123;28;20464;-94
2022/04/20 08:19:10;;;;;;;6.97;3.60;;;;;;;18.43;32.89;101583.72;4998658;28;20527;-90
2022/04/20 08:21:35;;;;;;;6.65;4.35;;;;;;;18.78;33.10;101586.91;5000719;28;20045;-90
2022/04/20 08:24:01;;;;;;;6.32;3.85;;;;;;;19.11;31.62;101585.72;4983302;28;20488;-94
2022/04/20 08:26:26;;;;;;;5.93;3.42;;;;;;;19.37;31.70;101587.59;4981336;28;20070;-95
2022/04/20 08:28:51;;;;;;;7.68;4.30;;;;;;;19.64;30.40;101600.19;4998122;28;20473;-94
2022/04/20 08:31:17;;;;;;;6.05;4.22;;;;;;;20.10;30.89;101591.72;4997639;28;20388;-93
2022/04/20 08:33:43;;;;;;;5.60;3.95;;;;;;;20.44;29.95;101595.63;4985212;28;20163;-95
2022/04/20 08:36:11;;;;;;;4.50;3.75;;;;;;;20.63;30.07;101581.78;4995176;28;20049;-96
2022/04/20 08:38:38;;;;;;;5.32;3.80;;;;;;;20.81;29.38;101599.31;4999775;28;20030;-94
2022/04/20 08:41:04;;;;;;;6.85;4.45;;;;;;;20.87;28.54;101588.09;4980882;28;20037;-91
2022/04/20 08:43:31;;;;;;;5.75;4.20;;;;;;;21.05;27.44;101595.81;4984741;28;20040;-93
2022/04/20 08:46:00;;;;;;;4.82;3.70;;;;;;;21.10;29.09;101596.34;4979729;28;20034;-94
2022/04/20 08:48:25;;;;;;;7.10;4.28;;;;;;;21.25;27.58;101581.78;4979571;28;20036;-94
2022/04/20 08:50:53;;;;;;;5.38;3.97;;;;;;;21.69;26.88;101590.28;4978873;28;20026;-91
2022/04/20 08:53:20;;;;;;;4.32;3.92;;;;;;;21.61;27.67;101583.63;4985643;28;20034;-94
2022/04/20 08:55:46;;;;;;;5.40;4.18;;;;;;;22.01;26.00;101582.41;4980866;28;20037;-90
2022/04/20 08:58:11;;;;;;;5.85;4.00;;;;;;;22.42;25.89;101584.63;4998506;28;20030;-94
2022/04/20 09:00:37;;;;;;;4.90;4.28;;;;;;;22.57;24.92;101577.16;4994589;28;20034;-93
2022/04/20 09:03:03;;;;;;;7.05;3.78;;;;;;;22.70;24.15;101575.22;4980286;28;20120;-96
2022/04/20 09:05:32;;;;;;;4.50;4.10;;;;;;;22.75;25.72;101586.50;4979620;28;20030;-94
2022/04/20 09:07:58;;;;;;;5.05;4.05;;;;;;;23.54;24.59;101578.31;4991663;28;20359;-95
2022/04/20 09:10:24;;;;;;;6.20;3.90;;;;;;;23.98;24.38;101585.44;4999798;28;20028;-94
2022/04/20 09:13:11;;;;;;;8.02;4.00;;;;;;;24.51;24.57;101568.31;4982601;28;20034;-95
2022/04/20 09:15:37;;;;;;;5.40;4.05;;;;;;;24.93;23.52;101569.06;5001365;28;20030;-90
2022/04/20 09:18:06;;;;;;;5.10;3.97;;;;;;;25.33;24.34;101579.91;5016799;28;20030;-90
2022/04/20 09:20:33;;;;;;;5.38;4.07;;;;;;;25.90;21.88;101575.53;4990316;28;20501;-94
2022/04/20 09:22:59;;;;;;;7.82;3.92;;;;;;;26.35;21.37;101568.63;4990541;28;20022;-95
2022/04/20 09:25:32;;;;;;;5.72;4.55;;;;;;;26.22;21.35;101577.06;5002159;28;20087;-93
2022/04/20 09:27:58;;;;;;;6.78;4.10;;;;;;;26.02;19.92;101575.38;4990176;28;20053;-96
2022/04/20 09:30:24;;;;;;;6.25;4.43;;;;;;;25.97;21.64;101577.66;4994769;28;20034;-91
2022/04/20 09:32:54;;;;;;;7.15;4.22;;;;;;;26.23;21.34;101569.78;5010912;28;20059;-96
2022/04/20 09:35:20;;;;;;;4.70;4.10;;;;;;;26.16;20.10;101562.25;5013355;28;20045;-92
2022/04/20 09:38:04;;;;;;;5.57;3.95;;;;;;;25.92;22.35;101562.69;4993936;28;20034;-92
2022/04/20 09:40:37;;;;;;;4.15;3.60;;;;;;;26.32;21.07;101558.06;4996145;28;20034;-90
2022/04/20 09:43:06;;;;;;;6.45;4.15;;;;;;;26.60;20.34;101557.16;5012033;28;20043;-91
2022/04/20 09:45:33;;;;;;;7.10;3.60;;;;;;;26.76;19.06;101550.22;4987608;28;20311;-95
2022/04/20 09:51:12;;;;;;;9.73;3.38;;;;;;;26.70;20.90;101560.69;4995925;28;20548;-94
2022/04/20 09:53:40;;;;;;;4.00;3.13;;;;;;;26.72;20.04;101555.13;4981488;28;20065;-95
2022/04/20 09:56:16;;;;;;;6.97;3.50;;;;;;;26.29;21.15;101551.06;4980574;28;20450;-94
2022/04/20 09:58:44;;;;;;;9.18;3.38;;;;;;;26.22;19.99;101547.25;4978919;28;20432;-94
2022/04/20 10:01:23;;;;;;;5.22;3.10;;;;;;;26.14;21.37;101552.53;5000960;28;20023;-93
2022/04/20 10:03:53;;;;;;;5.80;2.90;;;;;;;26.11;21.92;101544.69;4985818;28;20469;-94
2022/04/20 10:06:18;;;;;;;2.97;2.60;;;;;;;25.52;21.15;101543.88;4995942;28;20117;-94
2022/04/20 10:08:43;;;;;;;4.88;2.45;;;;;;;25.04;20.40;101538.31;4973984;28;20117;-95
2022/04/20 10:11:12;;;;;;;3.85;2.30;;;;;;;25.14;20.76;101545.53;4978696;28;20515;-92
2022/04/20 10:13:39;;;;;;;6.32;2.60;;;;;;;25.20;21.34;101549.50;4978030;28;20485;-92
2022/04/20 10:16:07;;;;;;;4.65;2.35;;;;;;;25.03;21.00;101531.22;4978030;28;20045;-94
2022/04/20 10:18:40;;;;;;;4.57;2.20;;;;;;;24.67;23.64;101538.94;4979632;28;20030;-92
2022/04/20 10:21:08;;;;;;;3.65;2.20;;;;;;;24.96;22.50;101538.19;4993025;28;20463;-92
2022/04/20 10:23:34;;;;;;;3.47;2.60;;;;;;;24.82;21.82;101521.34;4975722;28;20044;-93
2022/04/20 10:26:05;;;;;;;5.35;2.58;;;;;;;24.50;21.56;101515.25;4993637;28;20026;-91
2022/04/20 10:28:45;;;;;;;2.60;2.40;;;;;;;24.30;22.20;101528.63;4984297;28;20030;-93
2022/04/20 10:31:29;;;;;;;5.40;2.72;;;;;;;24.07;22.79;101524.38;4993118;28;20037;-91
2022/04/20 10:33:54;;;;;;;10.60;3.45;;;;;;;24.57;23.20;101516.38;4976208;28;20345;-93
2022/04/20 10:36:31;;;;;;;5.30;2.67;;;;;;;24.78;23.46;101516.34;4997219;28;20057;-94
2022/04/20 10:39:30;;;;;;;4.07;3.20;;;;;;;25.14;23.23;101525.72;4981590;28;20248;-93
2022/04/20 10:42:17;;;;;;;4.22;3.15;;;;;;;25.37;20.81;101519.06;4991622;28;20072;-92
2022/04/20 10:45:01;;;;;;;4.18;3.03;;;;;;;25.25;22.08;101513.91;4974456;28;20037;-92
2022/04/20 10:47:43;;;;;;;4.72;3.13;;;;;;;25.35;21.89;101518.34;4995305;28;20045;-93
2022/04/20 10:50:23;;;;;;;6.88;2.83;;;;;;;25.04;22.12;101522.97;4997208;28;20041;-94
2022/04/20 10:53:03;;;;;;;6.53;3.00;;;;;;;25.12;22.43;101511.47;4994912;28;20018;-94
2022/04/20 10:55:31;;;;;;;4.15;2.90;;;;;;;25.42;21.29;101510.53;4994325;28;20045;-93
2022/04/20 10:58:01;;;;;;;3.13;2.83;;;;;;;25.57;22.04;101509.09;4978840;28;20496;-92
2022/04/20 11:00:32;;;;;;;3.95;2.97;;;;;;;25.77;21.56;101503.69;4992950;28;20804;-94
2022/04/20 11:03:03;;;;;;;6.80;2.63;;;;;;;25.76;20.33;101489.28;4995487;28;20068;-94
2022/04/20 11:05:29;;;;;;;4.80;2.75;;;;;;;25.17;22.59;101501.94;4977873;28;20021;-93
2022/04/20 11:08:05;;;;;;;4.70;2.80;;;;;;;24.55;22.73;101499.47;4975730;28;20036;-94
2022/04/20 11:10:33;;;;;;;3.70;2.67;;;;;;;24.66;23.08;101507.47;4974235;28;20038;-93
2022/04/20 11:19:10;;;;;;;6.65;3.33;;;;;;;25.17;22.45;101493.81;4996991;28;20129;-92
2022/04/20 11:21:36;;;;;;;4.60;3.20;;;;;;;25.30;21.40;101490.84;4994709;28;20022;-93
2022/04/20 11:24:09;;;;;;;7.68;3.42;;;;;;;24.89;21.84;101479.19;4980591;28;20029;-94
2022/04/20 11:26:51;;;;;;;4.15;3.10;;;;;;;25.02;23.00;101475.38;4980294;28;20537;-93
2022/04/20 11:29:24;;;;;;;4.45;3.50;;;;;;;25.20;22.99;101473.75;4995411;28;20084;-93
2022/04/20 11:31:59;;;;;;;3.17;2.90;;;;;;;25.64;21.46;101474.16;4977137;28;20021;-92
2022/04/20 11:34:27;;;;;;;4.93;3.53;;;;;;;25.76;21.94;101474.91;4997013;28;20497;-94
2022/04/20 11:36:55;;;;;;;3.90;2.80;;;;;;;25.81;20.59;101464.47;4978871;28;20022;-94
2022/04/20 11:39:27;;;;;;;3.72;3.08;;;;;;;25.16;20.79;101453.38;5000247;28;20423;-95
2022/04/20 11:41:58;;;;;;;4.70;3.38;;;;;;;25.03;21.84;101471.69;4976730;28;20040;-95
2022/04/20 11:44:39;;;;;;;4.72;3.13;;;;;;;24.98;21.84;101455.03;4980987;28;20128;-92
2022/04/20 11:47:07;;;;;;;4.22;3.20;;;;;;;24.84;20.88;101465.25;4985970;28;20032;-95
2022/04/20 11:49:35;;;;;;;4.25;3.33;;;;;;;24.64;20.92;101453.53;4984837;28;20528;-94
2022/04/20 11:52:03;;;;;;;3.50;3.20;;;;;;;24.72;21.41;101442.03;4982546;28;20563;-93
2022/04/20 11:54:32;;;;;;;4.47;3.20;;;;;;;24.67;22.79;101447.84;4983354;28;20466;-94
2022/04/20 11:56:58;;;;;;;5.30;2.95;;;;;;;24.67;21.66;101458.66;5000312;28;20029;-94
2022/04/20 11:59:28;;;;;;;3.75;3.40;;;;;;;24.93;20.78;101445.47;5001534;28;20049;-91
2022/04/20 12:01:54;;;;;;;3.60;3.30;;;;;;;25.35;20.65;101437.13;4994838;28;20068;-95
2022/04/20 12:04:25;;;;;;;4.95;3.15;;;;;;;25.00;21.48;101440.38;4997042;28;20473;-94
2022/04/20 12:06:54;;;;;;;3.97;3.22;;;;;;;24.87;21.93;101442.47;4982900;28;20034;-96
2022/04/20 12:09:22;;;;;;;2.92;2.70;;;;;;;24.80;21.50;101438.59;4988228;28;20026;-95
2022/04/20 12:11:54;;;;;;;5.35;3.00;;;;;;;24.99;22.23;101444.03;4995660;28;20057;-93
2022/04/20 12:14:20;;;;;;;3.80;2.90;;;;;;;24.92;20.96;101440.22;4998725;28;20465;-94